Time;durP1;ratioP1;P1;durP2;ratioP2;P2;SDS_P1;SDS_P2;PMS_P1;PMS_P2;Temp;Humidity;BMP_temperature;BMP_pressure;BME280_temperature;BME280_humidity;BME280_pressure;Samples;Min_cycle;Max_cycle;Signal;HPM_P1;HPM_P2
2024/01/27 00:00:23;;;;;;;13.30;4.38;;;;;;;3.72;100.00;100248.53;6291978;28;20562;-71
2024/01/27 00:03:23;;;;;;;12.18;4.35;;;;;;;3.77;100.00;100251.00;6295916;28;20057;-71
2024/01/27 00:06:24;;;;;;;5.32;3.70;;;;;;;3.72;100.00;100248.53;6296019;28;20613;-71
2024/01/27 00:09:25;;;;;;;10.55;4.43;;;;;;;3.78;100.00;100248.34;6294910;28;20102;-71
2024/01/27 00:12:26;;;;;;;12.23;4.45;;;;;;;3.87;100.00;100248.97;6295919;28;20048;-71
2024/01/27 00:15:27;;;;;;;15.38;4.68;;;;;;;3.80;100.00;100249.16;6294209;28;20437;-71
2024/01/27 00:18:28;;;;;;;8.10;3.83;;;;;;;3.97;100.00;100255.53;6295513;28;20094;-70
2024/01/27 00:21:29;;;;;;;12.38;4.15;;;;;;;3.99;100.00;100259.75;6295573;28;20526;-71
2024/01/27 00:24:29;;;;;;;6.55;4.07;;;;;;;3.95;100.00;100262.50;6287199;28;20045;-71
2024/01/27 00:27:30;;;;;;;9.75;4.05;;;;;;;3.79;100.00;100257.81;6269720;28;20053;-71
2024/01/27 00:30:31;;;;;;;8.07;4.47;;;;;;;3.98;100.00;100272.75;6269124;28;20055;-70
2024/01/27 00:33:32;;;;;;;9.48;4.68;;;;;;;4.04;100.00;100275.97;6269398;28;20059;-71
2024/01/27 00:36:33;;;;;;;9.25;3.80;;;;;;;3.99;100.00;100275.25;6270822;28;20053;-71
2024/01/27 00:39:36;;;;;;;10.93;4.63;;;;;;;4.00;100.00;100274.38;6269384;28;20045;-71
2024/01/27 00:42:37;;;;;;;8.35;4.68;;;;;;;4.04;100.00;100278.56;6269272;28;20056;-71
2024/01/27 00:45:38;;;;;;;10.43;4.70;;;;;;;4.06;100.00;100275.06;6269034;28;20453;-72
2024/01/27 00:48:39;;;;;;;10.23;4.75;;;;;;;4.14;100.00;100273.09;6269431;28;20080;-71
2024/01/27 00:51:40;;;;;;;9.50;4.70;;;;;;;4.18;100.00;100274.69;6268941;28;20098;-71
2024/01/27 00:54:41;;;;;;;9.45;4.85;;;;;;;4.11;100.00;100284.38;6269303;28;20053;-71
2024/01/27 00:57:42;;;;;;;7.55;4.53;;;;;;;4.03;100.00;100288.91;6268799;28;20051;-71
2024/01/27 01:00:43;;;;;;;9.52;4.93;;;;;;;4.06;100.00;100275.94;6270184;28;20051;-71
2024/01/27 01:03:46;;;;;;;4.85;3.40;;;;;;;4.02;100.00;100270.00;6268713;28;20048;-71
2024/01/27 01:06:47;;;;;;;9.45;4.55;;;;;;;4.10;100.00;100256.88;6270163;28;20060;-71
2024/01/27 01:09:47;;;;;;;6.80;3.70;;;;;;;4.14;100.00;100258.47;6268874;28;20053;-71
2024/01/27 01:12:48;;;;;;;7.53;4.50;;;;;;;4.19;100.00;100242.81;6271651;28;20048;-71
2024/01/27 01:15:51;;;;;;;10.05;4.65;;;;;;;4.04;100.00;100259.63;6294978;28;20055;-71
2024/01/27 01:18:52;;;;;;;15.40;6.47;;;;;;;4.17;100.00;100258.34;6293747;28;20048;-71
2024/01/27 01:21:53;;;;;;;8.40;5.13;;;;;;;4.20;100.00;100266.03;6294963;28;20052;-71
2024/01/27 01:24:54;;;;;;;12.30;6.30;;;;;;;4.30;100.00;100245.88;6294885;28;20099;-71
2024/01/27 01:27:55;;;;;;;10.38;6.00;;;;;;;4.39;100.00;100261.09;6293305;28;20049;-71
2024/01/27 01:30:55;;;;;;;16.02;5.28;;;;;;;4.34;100.00;100250.06;6294584;28;20053;-71
2024/01/27 01:33:56;;;;;;;9.90;4.50;;;;;;;4.23;100.00;100253.00;6289958;28;20044;-71
2024/01/27 01:36:57;;;;;;;10.10;4.80;;;;;;;4.24;100.00;100252.13;6269733;28;20084;-71
2024/01/27 01:39:58;;;;;;;10.93;5.65;;;;;;;4.12;100.00;100249.06;6267663;28;20067;-71
2024/01/27 01:42:59;;;;;;;7.40;4.35;;;;;;;4.18;100.00;100239.41;6273242;28;20053;-71
2024/01/27 01:46:00;;;;;;;17.98;5.20;;;;;;;4.11;100.00;100258.53;6273526;28;20056;-71
2024/01/27 01:49:01;;;;;;;9.02;4.43;;;;;;;4.22;100.00;100253.03;6274339;28;20573;-71
2024/01/27 01:52:03;;;;;;;9.98;4.80;;;;;;;4.24;100.00;100262.44;6273053;28;20134;-71
2024/01/27 01:55:04;;;;;;;13.77;4.63;;;;;;;4.16;100.00;100269.59;6274537;28;20084;-71
2024/01/27 01:58:08;;;;;;;15.88;4.38;;;;;;;4.15;100.00;100278.22;6273512;28;20446;-71
2024/01/27 02:01:10;;;;;;;12.68;5.40;;;;;;;4.14;100.00;100280.84;6272596;28;20052;-71
2024/01/27 02:04:10;;;;;;;12.95;4.78;;;;;;;4.24;100.00;100292.56;6273818;28;20049;-71
2024/01/27 02:07:12;;;;;;;8.43;4.50;;;;;;;4.25;100.00;100276.19;6272330;28;20531;-71
2024/01/27 02:10:15;;;;;;;8.75;4.60;;;;;;;4.36;100.00;100271.53;6273606;28;20050;-71
2024/01/27 02:13:23;;;;;;;8.65;5.07;;;;;;;4.28;100.00;100264.91;6273552;28;20173;-71
2024/01/27 02:16:24;;;;;;;12.88;5.40;;;;;;;4.29;100.00;100257.13;6272702;28;20053;-71
2024/01/27 02:19:27;;;;;;;14.90;6.47;;;;;;;4.30;100.00;100250.22;6273885;28;20048;-71
2024/01/27 02:22:28;;;;;;;15.65;6.75;;;;;;;4.26;100.00;100262.38;6273009;28;20441;-71
2024/01/27 02:25:28;;;;;;;9.77;5.53;;;;;;;4.27;100.00;100268.41;6272055;28;20045;-70
2024/01/27 02:28:33;;;;;;;8.38;4.63;;;;;;;4.21;100.00;100278.03;6286378;28;20495;-71
2024/01/27 02:31:34;;;;;;;9.70;4.82;;;;;;;4.22;100.00;100297.81;6297833;28;20048;-70
2024/01/27 02:34:34;;;;;;;7.53;4.75;;;;;;;4.14;100.00;100294.63;6296598;28;20048;-72
2024/01/27 02:37:35;;;;;;;7.68;4.53;;;;;;;4.12;100.00;100296.41;6296799;28;20138;-71
2024/01/27 02:40:36;;;;;;;8.55;4.57;;;;;;;4.15;100.00;100306.63;6298070;28;20494;-71
2024/01/27 02:43:37;;;;;;;11.75;5.60;;;;;;;4.13;100.00;100307.56;6297757;28;20056;-71
2024/01/27 02:46:38;;;;;;;11.52;4.85;;;;;;;4.33;100.00;100320.72;6297475;28;20135;-71
2024/01/27 02:49:39;;;;;;;12.77;5.50;;;;;;;4.27;100.00;100315.75;6297940;28;20045;-71
2024/01/27 02:52:40;;;;;;;12.63;5.65;;;;;;;4.28;100.00;100317.41;6298044;28;20056;-71
2024/01/27 02:55:40;;;;;;;7.85;4.50;;;;;;;4.39;100.00;100304.19;6296666;28;20453;-71
2024/01/27 02:58:42;;;;;;;13.30;5.68;;;;;;;4.50;100.00;100309.00;6298087;28;20036;-71
2024/01/27 03:01:42;;;;;;;12.18;5.35;;;;;;;4.54;100.00;100318.38;6296573;28;20059;-71
2024/01/27 03:04:43;;;;;;;13.70;5.63;;;;;;;4.53;100.00;100319.25;6297362;28;20053;-70
2024/01/27 03:07:44;;;;;;;17.25;5.53;;;;;;;4.47;100.00;100309.97;6295955;28;20503;-71
2024/01/27 03:10:45;;;;;;;8.27;5.53;;;;;;;4.39;100.00;100317.94;6296151;28;20457;-71
2024/01/27 03:13:46;;;;;;;15.88;5.90;;;;;;;4.24;100.00;100311.53;6297497;28;20048;-71
2024/01/27 03:16:47;;;;;;;7.53;4.35;;;;;;;4.26;100.00;100316.63;6296029;28;20075;-70
2024/01/27 03:19:47;;;;;;;7.53;4.57;;;;;;;4.36;100.00;100324.94;6295804;28;20041;-72
2024/01/27 03:22:48;;;;;;;8.23;4.55;;;;;;;4.34;100.00;100329.31;6295753;28;20407;-71
2024/01/27 03:25:49;;;;;;;8.30;4.68;;;;;;;4.31;100.00;100334.59;6296975;28;20139;-71
2024/01/27 03:28:50;;;;;;;16.60;5.85;;;;;;;4.28;100.00;100337.25;6296977;28;20037;-71
2024/01/27 03:31:53;;;;;;;15.32;5.93;;;;;;;4.42;100.00;100335.94;6296784;28;20052;-71
2024/01/27 03:34:54;;;;;;;18.27;4.63;;;;;;;4.49;100.00;100328.84;6296869;28;20063;-70
2024/01/27 03:37:55;;;;;;;13.45;5.00;;;;;;;4.34;100.00;100329.31;6296558;28;20041;-70
2024/01/27 03:40:56;;;;;;;9.80;4.38;;;;;;;4.39;100.00;100332.63;6296872;28;20510;-70
2024/01/27 03:43:56;;;;;;;11.07;4.97;;;;;;;4.45;100.00;100335.00;6296204;28;20052;-70
2024/01/27 03:46:57;;;;;;;11.30;4.88;;;;;;;4.45;100.00;100340.19;6295509;28;20052;-71
2024/01/27 03:49:58;;;;;;;13.23;5.38;;;;;;;4.39;100.00;100350.69;6296481;28;20044;-70
2024/01/27 03:53:01;;;;;;;14.07;4.82;;;;;;;4.36;100.00;100361.94;6296207;28;20113;-71
2024/01/27 03:56:04;;;;;;;12.50;5.13;;;;;;;4.47;100.00;100369.41;6296230;28;20055;-70
2024/01/27 03:59:06;;;;;;;;;;;;;;;4.47;100.00;100379.72;6296599;28;20048;-71
2024/01/27 04:02:07;;;;;;;12.25;4.65;;;;;;;4.17;100.00;100392.66;6294578;28;20371;-70
2024/01/27 04:05:10;;;;;;;11.00;4.85;;;;;;;4.15;100.00;100401.34;6293615;28;20056;-70
2024/01/27 04:08:10;;;;;;;12.63;5.55;;;;;;;4.30;100.00;100403.47;6295674;28;20059;-70
2024/01/27 04:11:22;;;;;;;10.13;4.65;;;;;;;4.21;100.00;100414.09;6294440;28;20048;-70
2024/01/27 04:14:22;;;;;;;11.77;5.22;;;;;;;4.14;100.00;100426.34;6294193;28;20652;-70
2024/01/27 04:17:23;;;;;;;9.43;4.85;;;;;;;3.95;100.00;100435.47;6294656;28;20052;-70
2024/01/27 04:20:24;;;;;;;9.98;4.32;;;;;;;3.72;100.00;100449.00;6295354;28;20044;-71
2024/01/27 04:23:25;;;;;;;13.98;5.20;;;;;;;3.92;100.00;100454.47;6294057;28;20550;-71
2024/01/27 04:26:26;;;;;;;9.68;4.97;;;;;;;3.84;100.00;100462.44;6295845;28;20056;-71
2024/01/27 04:29:26;;;;;;;10.82;5.25;;;;;;;3.94;100.00;100459.63;6295681;28;20086;-71
2024/01/27 04:32:27;;;;;;;10.60;5.03;;;;;;;4.12;100.00;100473.72;6295845;28;20053;-71
2024/01/27 04:35:28;;;;;;;11.10;5.95;;;;;;;4.03;100.00;100480.84;6295537;28;20048;-70
2024/01/27 04:38:29;;;;;;;14.82;6.15;;;;;;;3.95;100.00;100490.53;6295155;28;20063;-71
2024/01/27 04:41:32;;;;;;;14.63;6.30;;;;;;;4.09;100.00;100495.34;6295320;28;20131;-70
2024/01/27 04:44:35;;;;;;;13.73;5.65;;;;;;;4.07;100.00;100488.53;6294128;28;20124;-74
2024/01/27 04:47:37;;;;;;;14.43;6.13;;;;;;;4.22;100.00;100498.41;6294950;28;20146;-75
2024/01/27 04:50:38;;;;;;;10.75;5.57;;;;;;;3.93;100.00;100494.91;6293466;28;20049;-74
2024/01/27 04:53:38;;;;;;;17.48;5.70;;;;;;;3.81;100.00;100496.09;6295621;28;20048;-74
2024/01/27 04:56:39;;;;;;;10.18;5.68;;;;;;;3.99;100.00;100504.22;6295201;28;20052;-75
2024/01/27 04:59:40;;;;;;;11.35;6.90;;;;;;;3.68;100.00;100517.91;6293731;28;20155;-75
2024/01/27 05:02:41;;;;;;;10.80;6.25;;;;;;;3.71;100.00;100527.34;6294045;28;20052;-74
2024/01/27 05:05:42;;;;;;;17.92;6.93;;;;;;;3.86;100.00;100534.69;6294774;28;20048;-75
2024/01/27 05:08:43;;;;;;;14.18;6.05;;;;;;;3.75;100.00;100545.28;6293298;28;20479;-74
2024/01/27 05:11:45;;;;;;;15.70;5.47;;;;;;;3.49;100.00;100548.50;6294855;28;20131;-74
2024/01/27 05:14:46;;;;;;;16.70;6.97;;;;;;;3.56;100.00;100557.78;6294772;28;20060;-74
2024/01/27 05:17:46;;;;;;;13.13;6.30;;;;;;;3.52;100.00;100565.63;6271505;28;20306;-73
2024/01/27 05:20:50;;;;;;;12.38;6.45;;;;;;;3.52;100.00;100565.63;6248565;28;20049;-74
2024/01/27 05:23:50;;;;;;;13.20;6.07;;;;;;;3.60;100.00;100566.28;6259235;28;20590;-74
2024/01/27 05:26:51;;;;;;;20.00;6.75;;;;;;;3.61;100.00;100568.84;6273550;28;20045;-75
2024/01/27 05:29:52;;;;;;;12.32;6.15;;;;;;;3.56;100.00;100556.94;6272728;28;20044;-75
2024/01/27 05:32:53;;;;;;;10.27;5.32;;;;;;;3.38;100.00;100571.97;6273010;28;20088;-75
2024/01/27 05:35:53;;;;;;;13.25;6.15;;;;;;;3.42;100.00;100577.91;6274763;28;20080;-71
2024/01/27 05:38:54;;;;;;;13.68;7.03;;;;;;;3.61;100.00;100584.31;6272966;28;20053;-71
2024/01/27 05:41:55;;;;;;;15.98;8.32;;;;;;;3.53;100.00;100596.56;6273458;28;20511;-71
2024/01/27 05:44:56;;;;;;;26.75;10.90;;;;;;;3.19;100.00;100606.78;6273267;28;20053;-71
2024/01/27 05:47:57;;;;;;;36.13;13.43;;;;;;;3.16;100.00;100607.69;6274652;28;20056;-70
2024/01/27 05:50:58;;;;;;;18.50;9.60;;;;;;;2.98;100.00;100628.72;6274423;28;20060;-70
2024/01/27 05:54:00;;;;;;;10.63;6.47;;;;;;;2.98;100.00;100636.44;6249550;28;20491;-70
2024/01/27 05:57:00;;;;;;;14.27;6.07;;;;;;;3.20;100.00;100639.44;6265029;28;20387;-70
2024/01/27 06:00:01;;;;;;;11.50;5.72;;;;;;;3.01;100.00;100644.13;6249360;28;20140;-70
2024/01/27 06:03:02;;;;;;;13.48;5.78;;;;;;;3.20;100.00;100642.84;6249667;28;20060;-70
2024/01/27 06:06:03;;;;;;;10.63;6.05;;;;;;;3.17;100.00;100653.25;6249322;28;20064;-70
2024/01/27 06:09:04;;;;;;;11.70;5.00;;;;;;;3.07;100.00;100662.06;6247023;28;20430;-71
2024/01/27 06:12:05;;;;;;;16.15;5.82;;;;;;;3.16;100.00;100674.75;6247775;28;20085;-72
2024/01/27 06:15:08;;;;;;;14.48;5.88;;;;;;;3.10;100.00;100686.91;6247298;28;20566;-71
2024/01/27 06:18:09;;;;;;;14.68;6.40;;;;;;;3.09;100.00;100687.78;6247552;28;20053;-71
2024/01/27 06:21:10;;;;;;;14.30;5.88;;;;;;;3.01;100.00;100693.97;6247758;28;20060;-70
2024/01/27 06:24:11;;;;;;;16.58;5.90;;;;;;;2.86;100.00;100694.25;6245841;28;20108;-70
2024/01/27 06:27:12;;;;;;;10.85;6.07;;;;;;;3.15;100.00;100703.13;6247355;28;20049;-70
2024/01/27 06:30:14;;;;;;;9.38;5.45;;;;;;;3.19;100.00;100697.03;6262914;28;20038;-71
2024/01/27 06:33:15;;;;;;;14.48;4.80;;;;;;;3.16;100.00;100703.13;6245340;28;20060;-70
2024/01/27 06:36:16;;;;;;;11.80;5.68;;;;;;;3.14;100.00;100711.78;6251714;28;20107;-70
2024/01/27 06:39:16;;;;;;;20.50;5.70;;;;;;;3.08;100.00;100717.88;6271777;28;20087;-71
2024/01/27 06:42:18;;;;;;;10.60;4.47;;;;;;;3.20;100.00;100720.22;6270191;28;20076;-71
2024/01/27 06:45:19;;;;;;;13.43;5.97;;;;;;;3.38;100.00;100721.59;6270614;28;20052;-70
2024/01/27 06:48:24;;;;;;;18.05;6.88;;;;;;;3.45;100.00;100722.31;6277221;28;20095;-70
2024/01/27 06:51:25;;;;;;;15.88;7.00;;;;;;;3.43;100.00;100724.06;6281790;28;20045;-71
2024/01/27 06:54:26;;;;;;;12.73;5.93;;;;;;;3.69;100.00;100723.53;6270140;28;20423;-71
2024/01/27 06:57:27;;;;;;;14.07;6.53;;;;;;;3.66;100.00;100733.91;6282155;28;20514;-71
2024/01/27 07:00:28;;;;;;;14.20;7.25;;;;;;;4.06;100.00;100729.56;6280215;28;20045;-71
2024/01/27 07:03:29;;;;;;;10.80;6.20;;;;;;;3.96;100.00;100731.53;6274830;28;20049;-71
2024/01/27 07:06:30;;;;;;;17.08;8.75;;;;;;;4.01;100.00;100729.69;6269634;28;20056;-71
2024/01/27 07:09:31;;;;;;;12.05;6.78;;;;;;;3.90;100.00;100739.41;6225551;28;1283150;-75
2024/01/27 07:12:31;;;;;;;13.98;6.95;;;;;;;4.08;100.00;100731.25;6277766;28;20056;-75
2024/01/27 07:15:32;;;;;;;14.90;6.43;;;;;;;4.27;100.00;100746.31;6272913;28;20052;-75
2024/01/27 07:18:34;;;;;;;22.30;8.93;;;;;;;4.36;100.00;100734.00;6272456;28;20045;-75
2024/01/27 07:21:35;;;;;;;27.98;10.15;;;;;;;4.26;100.00;100735.09;6269343;28;20068;-75
2024/01/27 07:24:36;;;;;;;16.55;7.13;;;;;;;4.28;100.00;100719.59;6264389;28;20053;-75
2024/01/27 07:27:37;;;;;;;21.20;5.97;;;;;;;4.11;100.00;100728.59;6261369;28;20044;-75
2024/01/27 07:30:38;;;;;;;12.57;7.15;;;;;;;3.95;100.00;100716.91;6260098;28;20056;-75
2024/01/27 07:33:39;;;;;;;9.68;6.22;;;;;;;4.00;100.00;100730.56;6267065;28;20053;-75
2024/01/27 07:36:42;;;;;;;12.98;6.43;;;;;;;3.92;100.00;100738.50;6252734;28;20683;-75
2024/01/27 07:39:43;;;;;;;16.23;6.80;;;;;;;4.02;100.00;100750.31;6269939;28;20076;-75
2024/01/27 07:42:43;;;;;;;13.82;6.97;;;;;;;4.03;100.00;100746.84;6271053;28;20045;-75
2024/01/27 07:45:44;;;;;;;10.80;6.60;;;;;;;4.05;100.00;100751.97;6255970;28;20057;-75
2024/01/27 07:48:45;;;;;;;16.10;7.10;;;;;;;4.02;100.00;100747.72;6247320;28;20098;-75
2024/01/27 07:51:46;;;;;;;15.68;6.80;;;;;;;4.17;100.00;100758.59;6246999;28;20590;-75
2024/01/27 07:54:47;;;;;;;21.23;8.50;;;;;;;4.10;100.00;100751.84;6262618;28;20046;-75
2024/01/27 07:57:48;;;;;;;12.32;5.35;;;;;;;4.06;100.00;100747.66;6246866;28;20052;-75
2024/01/27 08:00:48;;;;;;;13.95;7.57;;;;;;;4.37;100.00;100761.56;6247973;28;20052;-75
2024/01/27 08:03:49;;;;;;;14.85;7.85;;;;;;;4.65;100.00;100755.69;6270947;28;20049;-71
2024/01/27 08:06:51;;;;;;;14.95;7.25;;;;;;;4.84;100.00;100763.84;6256258;28;20049;-71
2024/01/27 08:09:52;;;;;;;12.70;6.63;;;;;;;5.14;100.00;100766.50;6261990;28;20045;-71
2024/01/27 08:12:53;;;;;;;14.57;5.80;;;;;;;5.05;100.00;100768.44;6245429;28;20058;-71
2024/01/27 08:15:53;;;;;;;17.77;7.63;;;;;;;5.43;100.00;100782.06;6245300;28;20111;-71
2024/01/27 08:18:54;;;;;;;17.05;7.55;;;;;;;5.41;100.00;100780.41;6246464;28;20056;-71
2024/01/27 08:21:55;;;;;;;17.42;9.27;;;;;;;5.59;100.00;100773.88;6246732;28;20052;-71
2024/01/27 08:24:56;;;;;;;15.25;6.70;;;;;;;5.50;100.00;100787.94;6272270;28;20141;-71
2024/01/27 08:27:57;;;;;;;12.02;7.20;;;;;;;5.71;100.00;100785.63;6284155;28;20513;-71
2024/01/27 08:30:59;;;;;;;12.73;6.45;;;;;;;5.68;100.00;100777.94;6294468;28;20048;-71
2024/01/27 08:34:00;;;;;;;10.73;5.47;;;;;;;5.78;100.00;100790.56;6294488;28;20055;-75
2024/01/27 08:37:02;;;;;;;12.55;6.60;;;;;;;5.98;100.00;100797.78;6285034;28;20049;-75
2024/01/27 08:40:03;;;;;;;15.13;7.37;;;;;;;5.95;100.00;100808.25;6293975;28;20041;-75
2024/01/27 08:43:05;;;;;;;11.05;6.60;;;;;;;6.04;100.00;100795.00;6295536;28;20056;-76
2024/01/27 08:46:11;;;;;;;14.10;6.07;;;;;;;6.13;100.00;100812.00;6295278;28;20391;-75
2024/01/27 08:49:11;;;;;;;14.90;7.32;;;;;;;6.36;100.00;100802.66;6283087;28;20056;-75
2024/01/27 08:52:12;;;;;;;15.73;6.80;;;;;;;6.52;100.00;100811.66;6295499;28;20049;-75
2024/01/27 08:55:13;;;;;;;15.00;6.20;;;;;;;6.82;100.00;100799.44;6293950;28;20051;-76
2024/01/27 08:58:14;;;;;;;14.20;6.45;;;;;;;6.98;100.00;100801.50;6291873;28;20412;-75
2024/01/27 09:01:18;;;;;;;11.57;5.22;;;;;;;6.99;100.00;100806.63;6280746;28;20066;-75
2024/01/27 09:04:19;;;;;;;11.02;5.50;;;;;;;6.71;100.00;100798.94;6268005;28;20057;-75
2024/01/27 09:07:20;;;;;;;11.27;6.22;;;;;;;6.76;100.00;100801.38;6272166;28;20053;-75
2024/01/27 09:10:21;;;;;;;12.45;6.78;;;;;;;6.84;100.00;100804.56;6282629;28;20055;-75
2024/01/27 09:13:21;;;;;;;9.07;4.45;;;;;;;6.39;100.00;100811.19;6272532;28;20057;-75
2024/01/27 09:16:23;;;;;;;7.22;3.90;;;;;;;6.60;100.00;100811.41;6269352;28;20072;-75
2024/01/27 09:19:24;;;;;;;8.30;3.67;;;;;;;6.55;100.00;100821.09;6270259;28;20036;-75
2024/01/27 09:22:25;;;;;;;5.68;3.42;;;;;;;7.15;100.00;100806.97;6270542;28;20055;-75
2024/01/27 09:25:26;;;;;;;9.02;2.38;;;;;;;7.08;100.00;100795.09;6270157;28;20048;-74
2024/01/27 09:28:26;;;;;;;4.93;2.85;;;;;;;7.03;100.00;100794.41;6270044;28;20059;-75
2024/01/27 09:31:30;;;;;;;4.40;2.45;;;;;;;7.10;99.89;100800.22;6269003;28;20057;-75
2024/01/27 09:34:31;;;;;;;6.20;2.80;;;;;;;6.97;98.13;100799.81;6264093;28;20056;-75
2024/01/27 09:37:33;;;;;;;14.55;4.85;;;;;;;7.03;98.33;100804.78;6261298;28;20519;-70
2024/01/27 09:40:34;;;;;;;9.55;3.67;;;;;;;6.85;94.70;100798.47;6264494;28;20063;-74
2024/01/27 09:43:38;;;;;;;4.93;2.55;;;;;;;6.84;91.69;100805.41;6269260;28;20049;-74
2024/01/27 09:46:39;;;;;;;5.72;2.75;;;;;;;7.04;94.17;100801.28;6245150;28;20106;-74
2024/01/27 09:49:41;;;;;;;7.38;2.83;;;;;;;7.16;95.13;100793.06;6262970;28;20045;-74
2024/01/27 09:52:44;;;;;;;5.53;3.40;;;;;;;7.45;94.49;100797.25;6262907;28;20081;-74
2024/01/27 09:55:44;;;;;;;6.85;3.45;;;;;;;7.46;95.22;100791.13;6269297;28;20048;-74
2024/01/27 09:58:45;;;;;;;5.70;3.17;;;;;;;7.41;95.85;100787.88;6269619;28;20447;-70
2024/01/27 10:01:48;;;;;;;5.90;3.20;;;;;;;7.10;94.67;100801.06;6269634;28;20055;-70
2024/01/27 10:04:50;;;;;;;3.72;2.03;;;;;;;7.03;94.06;100797.00;6271834;28;20045;-69
2024/01/27 10:07:51;;;;;;;4.63;2.83;;;;;;;7.42;94.78;100809.50;6273465;28;20118;-69
2024/01/27 10:10:56;;;;;;;5.50;2.95;;;;;;;7.33;92.28;100794.22;6273206;28;20049;-69
2024/01/27 10:14:02;;;;;;;4.93;2.95;;;;;;;7.80;92.03;100799.44;6272546;28;20407;-70
2024/01/27 10:17:03;;;;;;;8.30;2.88;;;;;;;7.92;90.05;100801.56;6248359;28;20099;-69
2024/01/27 10:20:13;;;;;;;8.68;4.22;;;;;;;7.96;88.51;100797.94;6267530;28;20045;-70
2024/01/27 10:23:13;;;;;;;4.03;2.05;;;;;;;8.09;89.26;100811.31;6273930;28;20053;-70
2024/01/27 10:26:14;;;;;;;7.18;2.03;;;;;;;8.14;87.24;100809.41;6272398;28;20514;-69
2024/01/27 10:29:18;;;;;;;4.40;1.80;;;;;;;8.00;83.70;100796.94;6272694;28;20446;-69
2024/01/27 10:32:18;;;;;;;4.53;1.98;;;;;;;7.99;84.45;100807.38;6253854;28;20060;-69
2024/01/27 10:35:19;;;;;;;2.83;1.65;;;;;;;8.19;81.45;100783.22;6249425;28;20049;-69
2024/01/27 10:38:20;;;;;;;4.88;1.52;;;;;;;8.52;77.92;100790.59;6248786;28;20046;-69
2024/01/27 10:41:26;;;;;;;3.33;1.75;;;;;;;9.07;78.11;100794.34;6264107;28;20060;-70
2024/01/27 10:44:29;;;;;;;3.92;1.33;;;;;;;8.79;75.83;100793.81;6272790;28;20483;-70
2024/01/27 10:47:31;;;;;;;2.05;1.60;;;;;;;8.58;77.59;100790.34;6268899;28;20424;-69
2024/01/27 10:50:37;;;;;;;3.90;1.70;;;;;;;7.96;71.43;100790.16;6269439;28;20045;-69
2024/01/27 10:53:41;;;;;;;3.40;1.73;;;;;;;7.92;72.89;100793.78;6280046;28;20044;-69
2024/01/27 10:56:45;;;;;;;2.58;1.10;;;;;;;8.03;72.70;100806.34;6282794;28;20076;-69
2024/01/27 10:59:50;;;;;;;2.05;1.17;;;;;;;8.25;71.34;100794.22;6279030;28;20048;-69
2024/01/27 11:02:54;;;;;;;3.42;1.50;;;;;;;8.49;72.35;100795.94;6283471;28;20049;-69
2024/01/27 11:05:56;;;;;;;2.40;1.33;;;;;;;8.59;70.75;100800.72;6296562;28;20063;-69
2024/01/27 11:08:59;;;;;;;5.43;1.70;;;;;;;8.54;69.03;100804.41;6296423;28;20087;-69
2024/01/27 11:12:02;;;;;;;3.10;1.63;;;;;;;7.87;67.14;100804.34;6289710;28;20067;-69
2024/01/27 11:15:03;;;;;;;;;;;;;;;7.91;66.29;100797.28;6271997;28;20614;-74
2024/01/27 11:18:04;;;;;;;1.73;1.00;;;;;;;8.28;67.52;100795.88;6272016;28;19983;-70
2024/01/27 11:21:05;;;;;;;3.97;1.27;;;;;;;8.25;66.89;100803.78;6272555;28;20063;-70
2024/01/27 11:24:16;;;;;;;1.98;1.20;;;;;;;8.23;67.18;100796.03;6271605;28;20408;-69
2024/01/27 11:27:16;;;;;;;8.05;1.67;;;;;;;8.41;68.06;100793.66;6272268;28;20087;-69
2024/01/27 11:30:28;;;;;;;8.45;1.92;;;;;;;8.18;66.91;100800.56;6273162;28;20041;-74
2024/01/27 11:33:29;;;;;;;5.75;1.70;;;;;;;8.91;67.86;100792.47;6277130;28;20122;-74
2024/01/27 11:36:33;;;;;;;3.13;1.27;;;;;;;8.64;67.88;100795.31;6295675;28;20454;-73
2024/01/27 11:39:34;;;;;;;5.68;1.77;;;;;;;8.04;67.12;100818.44;6295652;28;20400;-69
2024/01/27 11:42:35;;;;;;;4.32;1.40;;;;;;;8.17;66.22;100813.63;6297025;28;20048;-69
2024/01/27 11:45:35;;;;;;;5.72;1.60;;;;;;;8.23;65.91;100808.19;6295474;28;20048;-69
2024/01/27 11:48:42;;;;;;;2.55;1.10;;;;;;;8.24;68.07;100822.91;6296895;28;20136;-69
2024/01/27 11:51:44;;;;;;;6.53;1.63;;;;;;;8.22;67.42;100807.34;6296697;28;20048;-70
2024/01/27 11:54:53;;;;;;;8.82;2.47;;;;;;;8.32;71.20;100809.56;6296690;28;20059;-69
2024/01/27 11:57:54;;;;;;;7.95;1.90;;;;;;;8.58;67.25;100806.81;6294971;28;20494;-69
2024/01/27 12:00:55;;;;;;;6.55;2.20;;;;;;;8.76;69.10;100802.59;6294799;28;20055;-69
2024/01/27 12:03:56;;;;;;;4.72;2.00;;;;;;;8.82;66.24;100798.91;6284123;28;20045;-69
2024/01/27 12:06:56;;;;;;;5.55;2.63;;;;;;;8.82;67.85;100793.72;6294734;28;20059;-69
2024/01/27 12:09:58;;;;;;;4.38;2.13;;;;;;;8.64;65.36;100793.53;6295899;28;20139;-69
2024/01/27 12:12:59;;;;;;;4.93;2.10;;;;;;;8.46;66.69;100794.28;6295575;28;20048;-74
2024/01/27 12:16:00;;;;;;;6.88;3.00;;;;;;;8.51;70.06;100799.34;6294257;28;20122;-74
2024/01/27 12:19:01;;;;;;;3.22;1.67;;;;;;;8.40;73.05;100810.97;6294769;28;20376;-73
2024/01/27 12:22:03;;;;;;;2.88;1.83;;;;;;;8.30;74.92;100817.44;6289079;28;20044;-74
2024/01/27 12:25:13;;;;;;;2.25;1.52;;;;;;;8.12;73.51;100824.22;6286165;28;20413;-74
2024/01/27 12:28:14;;;;;;;8.82;2.50;;;;;;;8.13;74.00;100825.03;6295998;28;20041;-74
2024/01/27 12:31:19;;;;;;;5.07;2.08;;;;;;;7.95;73.09;100823.97;6268115;28;20079;-74
2024/01/27 12:34:21;;;;;;;4.65;2.67;;;;;;;8.02;72.05;100822.88;6277080;28;20045;-69
2024/01/27 12:37:22;;;;;;;4.97;2.17;;;;;;;8.05;71.48;100822.72;6284171;28;20049;-69
2024/01/27 12:40:23;;;;;;;6.05;2.22;;;;;;;8.02;71.45;100820.25;6270725;28;20044;-69
2024/01/27 12:43:24;;;;;;;6.93;3.08;;;;;;;8.27;73.38;100827.97;6267520;28;20072;-69
2024/01/27 12:46:25;;;;;;;3.78;2.30;;;;;;;8.13;72.57;100827.63;6269333;28;20049;-74
2024/01/27 12:49:27;;;;;;;8.00;2.33;;;;;;;8.25;71.93;100829.78;6270532;28;20049;-74
2024/01/27 12:52:27;;;;;;;5.20;1.83;;;;;;;8.09;72.85;100829.50;6275874;28;20492;-74
2024/01/27 12:55:28;;;;;;;8.40;2.70;;;;;;;8.20;74.18;100823.91;6269285;28;20076;-74
2024/01/27 12:58:29;;;;;;;5.57;2.80;;;;;;;8.17;73.94;100829.22;6270340;28;20052;-74
2024/01/27 13:01:32;;;;;;;5.25;2.45;;;;;;;8.17;72.63;100830.06;6269528;28;20080;-74
2024/01/27 13:04:33;;;;;;;4.47;1.55;;;;;;;8.22;71.76;100827.31;6269207;28;20064;-74
2024/01/27 13:07:34;;;;;;;3.88;1.85;;;;;;;8.28;70.83;100824.47;6270538;28;20049;-73
2024/01/27 13:10:35;;;;;;;5.27;1.83;;;;;;;8.11;70.28;100826.84;6263371;28;20045;-74
2024/01/27 13:13:36;;;;;;;6.00;1.80;;;;;;;7.99;68.27;100826.44;6270311;28;20052;-73
2024/01/27 13:16:37;;;;;;;4.18;2.15;;;;;;;8.01;67.71;100828.94;6268820;28;20048;-69
2024/01/27 13:19:38;;;;;;;4.65;1.55;;;;;;;8.04;69.87;100837.50;6269926;28;20404;-68
2024/01/27 13:22:41;;;;;;;2.20;1.13;;;;;;;8.11;71.62;100838.09;6270228;28;20067;-69
2024/01/27 13:25:41;;;;;;;5.38;1.98;;;;;;;7.98;74.28;100837.72;6268859;28;20056;-74
2024/01/27 13:28:42;;;;;;;3.95;1.92;;;;;;;7.92;76.33;100843.16;6268694;28;20053;-73
2024/01/27 13:31:43;;;;;;;9.40;3.80;;;;;;;7.87;77.55;100838.13;6268664;28;20049;-73
2024/01/27 13:34:44;;;;;;;17.05;3.90;;;;;;;7.80;78.76;100843.59;6268994;28;20514;-73
2024/01/27 13:37:46;;;;;;;9.80;4.28;;;;;;;7.92;80.78;100842.31;6272905;28;20389;-68
2024/01/27 13:40:46;;;;;;;3.92;2.38;;;;;;;7.73;81.72;100842.16;6273529;28;20143;-69
2024/01/27 13:43:49;;;;;;;3.60;1.55;;;;;;;7.74;80.04;100842.09;6273684;28;20053;-74
2024/01/27 13:46:50;;;;;;;7.70;3.08;;;;;;;7.74;79.53;100836.03;6274603;28;20485;-74
2024/01/27 13:49:52;;;;;;;31.25;13.18;;;;;;;7.76;78.35;100836.81;6274667;28;20041;-74
2024/01/27 13:52:53;;;;;;;18.38;7.90;;;;;;;7.74;78.29;100836.91;6272474;28;20526;-69
2024/01/27 13:55:56;;;;;;;18.75;7.57;;;;;;;7.74;78.97;100834.31;6273277;28;20518;-68
2024/01/27 13:58:56;;;;;;;15.30;6.70;;;;;;;7.65;78.36;100850.22;6274068;28;20053;-69
2024/01/27 14:01:57;;;;;;;14.00;5.28;;;;;;;7.62;80.49;100847.75;6273982;28;20053;-69